sensor_id;sensor_type;location;lat;lon;timestamp;P1;durP1;ratioP1;P2;durP2;ratioP2
69783;SDS011;57054;51.978;4.498;2022-07-29T00:00:09;1.75;;;0.80;;
69783;SDS011;57054;51.978;4.498;2022-07-29T00:02:35;4.97;;;1.50;;
69783;SDS011;57054;51.978;4.498;2022-07-29T00:05:01;0.57;;;0.57;;
69783;SDS011;57054;51.978;4.498;2022-07-29T00:07:27;1.48;;;0.88;;
69783;SDS011;57054;51.978;4.498;2022-07-29T00:09:53;3.92;;;0.93;;
69783;SDS011;57054;51.978;4.498;2022-07-29T00:12:19;2.60;;;0.88;;
69783;SDS011;57054;51.978;4.498;2022-07-29T00:14:45;1.42;;;0.98;;
69783;SDS011;57054;51.978;4.498;2022-07-29T00:17:11;1.13;;;0.80;;
69783;SDS011;57054;51.978;4.498;2022-07-29T00:19:36;2.20;;;0.90;;
69783;SDS011;57054;51.978;4.498;2022-07-29T00:22:02;3.28;;;0.90;;
69783;SDS011;57054;51.978;4.498;2022-07-29T00:24:27;2.90;;;0.90;;
69783;SDS011;57054;51.978;4.498;2022-07-29T00:26:53;2.58;;;1.38;;
69783;SDS011;57054;51.978;4.498;2022-07-29T00:29:18;0.90;;;0.90;;
69783;SDS011;57054;51.978;4.498;2022-07-29T00:31:44;3.50;;;0.93;;
69783;SDS011;57054;51.978;4.498;2022-07-29T00:34:09;1.98;;;0.90;;
69783;SDS011;57054;51.978;4.498;2022-07-29T00:36:55;1.20;;;0.98;;
69783;SDS011;57054;51.978;4.498;2022-07-29T00:39:24;2.08;;;0.98;;
69783;SDS011;57054;51.978;4.498;2022-07-29T00:41:49;0.82;;;0.80;;
69783;SDS011;57054;51.978;4.498;2022-07-29T00:44:15;1.52;;;1.10;;
69783;SDS011;57054;51.978;4.498;2022-07-29T00:46:41;1.23;;;0.98;;
69783;SDS011;57054;51.978;4.498;2022-07-29T00:49:06;2.03;;;0.90;;
69783;SDS011;57054;51.978;4.498;2022-07-29T00:51:32;1.27;;;0.88;;
69783;SDS011;57054;51.978;4.498;2022-07-29T00:54:00;2.47;;;1.15;;
69783;SDS011;57054;51.978;4.498;2022-07-29T00:56:25;3.40;;;0.98;;
69783;SDS011;57054;51.978;4.498;2022-07-29T00:58:51;1.67;;;1.02;;
69783;SDS011;57054;51.978;4.498;2022-07-29T01:01:17;2.63;;;1.10;;
69783;SDS011;57054;51.978;4.498;2022-07-29T01:03:42;1.38;;;0.90;;
69783;SDS011;57054;51.978;4.498;2022-07-29T01:06:07;1.55;;;1.05;;
69783;SDS011;57054;51.978;4.498;2022-07-29T01:08:34;1.95;;;0.90;;
69783;SDS011;57054;51.978;4.498;2022-07-29T01:11:00;2.03;;;0.93;;
69783;SDS011;57054;51.978;4.498;2022-07-29T01:13:27;1.42;;;0.98;;
69783;SDS011;57054;51.978;4.498;2022-07-29T01:15:56;1.40;;;1.07;;
69783;SDS011;57054;51.978;4.498;2022-07-29T01:18:28;5.82;;;1.20;;
69783;SDS011;57054;51.978;4.498;2022-07-29T01:23:59;1.20;;;0.90;;
69783;SDS011;57054;51.978;4.498;2022-07-29T01:29:14;2.60;;;1.05;;
69783;SDS011;57054;51.978;4.498;2022-07-29T01:32:00;1.15;;;0.90;;
69783;SDS011;57054;51.978;4.498;2022-07-29T01:34:48;1.17;;;0.90;;
69783;SDS011;57054;51.978;4.498;2022-07-29T01:37:19;0.83;;;0.83;;
69783;SDS011;57054;51.978;4.498;2022-07-29T01:39:47;1.00;;;0.90;;
69783;SDS011;57054;51.978;4.498;2022-07-29T01:42:35;3.45;;;1.20;;
69783;SDS011;57054;51.978;4.498;2022-07-29T01:48:03;1.08;;;0.98;;
69783;SDS011;57054;51.978;4.498;2022-07-29T01:50:35;1.05;;;0.80;;
69783;SDS011;57054;51.978;4.498;2022-07-29T01:53:06;1.08;;;0.80;;
69783;SDS011;57054;51.978;4.498;2022-07-29T01:55:36;2.10;;;0.98;;
69783;SDS011;57054;51.978;4.498;2022-07-29T01:58:05;1.33;;;1.00;;
69783;SDS011;57054;51.978;4.498;2022-07-29T02:00:33;4.10;;;1.02;;
69783;SDS011;57054;51.978;4.498;2022-07-29T02:03:11;1.55;;;0.90;;
69783;SDS011;57054;51.978;4.498;2022-07-29T02:05:38;1.35;;;1.10;;
69783;SDS011;57054;51.978;4.498;2022-07-29T02:08:07;3.63;;;1.13;;
69783;SDS011;57054;51.978;4.498;2022-07-29T02:10:35;1.67;;;1.20;;
69783;SDS011;57054;51.978;4.498;2022-07-29T02:13:02;4.60;;;1.10;;
69783;SDS011;57054;51.978;4.498;2022-07-29T02:15:29;2.35;;;1.00;;
69783;SDS011;57054;51.978;4.498;2022-07-29T02:18:01;1.75;;;1.10;;
69783;SDS011;57054;51.978;4.498;2022-07-29T02:20:30;1.85;;;1.10;;
69783;SDS011;57054;51.978;4.498;2022-07-29T02:22:56;3.13;;;1.35;;
69783;SDS011;57054;51.978;4.498;2022-07-29T02:25:24;1.00;;;0.88;;
69783;SDS011;57054;51.978;4.498;2022-07-29T02:27:51;1.33;;;1.10;;
69783;SDS011;57054;51.978;4.498;2022-07-29T02:30:18;1.83;;;1.10;;
69783;SDS011;57054;51.978;4.498;2022-07-29T02:32:45;2.05;;;1.17;;
69783;SDS011;57054;51.978;4.498;2022-07-29T02:35:13;1.63;;;1.20;;
69783;SDS011;57054;51.978;4.498;2022-07-29T02:37:41;1.27;;;1.15;;
69783;SDS011;57054;51.978;4.498;2022-07-29T02:40:11;1.75;;;1.10;;
69783;SDS011;57054;51.978;4.498;2022-07-29T02:42:41;1.20;;;1.10;;
69783;SDS011;57054;51.978;4.498;2022-07-29T02:45:09;1.48;;;1.05;;
69783;SDS011;57054;51.978;4.498;2022-07-29T02:47:41;4.95;;;1.35;;
69783;SDS011;57054;51.978;4.498;2022-07-29T02:52:41;1.38;;;1.20;;
69783;SDS011;57054;51.978;4.498;2022-07-29T03:00:41;1.23;;;0.93;;
69783;SDS011;57054;51.978;4.498;2022-07-29T03:03:12;1.67;;;1.00;;
69783;SDS011;57054;51.978;4.498;2022-07-29T03:05:40;0.90;;;0.90;;
69783;SDS011;57054;51.978;4.498;2022-07-29T03:08:06;1.35;;;1.00;;
69783;SDS011;57054;51.978;4.498;2022-07-29T03:10:34;2.67;;;1.20;;
69783;SDS011;57054;51.978;4.498;2022-07-29T03:12:59;1.77;;;1.17;;
69783;SDS011;57054;51.978;4.498;2022-07-29T03:15:26;1.25;;;0.95;;
69783;SDS011;57054;51.978;4.498;2022-07-29T03:17:52;1.75;;;1.08;;
69783;SDS011;57054;51.978;4.498;2022-07-29T03:20:18;0.77;;;0.75;;
69783;SDS011;57054;51.978;4.498;2022-07-29T03:22:44;1.40;;;1.10;;
69783;SDS011;57054;51.978;4.498;2022-07-29T03:25:13;1.67;;;0.98;;
69783;SDS011;57054;51.978;4.498;2022-07-29T03:27:41;1.38;;;0.80;;
69783;SDS011;57054;51.978;4.498;2022-07-29T03:30:07;2.05;;;0.90;;
69783;SDS011;57054;51.978;4.498;2022-07-29T03:32:33;1.75;;;1.05;;
69783;SDS011;57054;51.978;4.498;2022-07-29T03:34:59;1.65;;;1.10;;
69783;SDS011;57054;51.978;4.498;2022-07-29T03:37:25;1.40;;;1.08;;
69783;SDS011;57054;51.978;4.498;2022-07-29T03:39:51;2.03;;;1.27;;
69783;SDS011;57054;51.978;4.498;2022-07-29T03:42:19;1.30;;;1.20;;
69783;SDS011;57054;51.978;4.498;2022-07-29T03:44:48;1.20;;;0.93;;
69783;SDS011;57054;51.978;4.498;2022-07-29T03:47:15;1.25;;;1.15;;
69783;SDS011;57054;51.978;4.498;2022-07-29T03:52:11;2.83;;;1.17;;
69783;SDS011;57054;51.978;4.498;2022-07-29T03:54:37;1.42;;;1.20;;
69783;SDS011;57054;51.978;4.498;2022-07-29T03:57:03;1.38;;;1.00;;
69783;SDS011;57054;51.978;4.498;2022-07-29T03:59:30;2.38;;;0.98;;
69783;SDS011;57054;51.978;4.498;2022-07-29T04:01:58;2.53;;;1.25;;
69783;SDS011;57054;51.978;4.498;2022-07-29T04:04:26;2.00;;;1.27;;
69783;SDS011;57054;51.978;4.498;2022-07-29T04:06:52;2.33;;;1.45;;
69783;SDS011;57054;51.978;4.498;2022-07-29T04:09:17;1.55;;;1.20;;
69783;SDS011;57054;51.978;4.498;2022-07-29T04:11:43;3.30;;;1.35;;
69783;SDS011;57054;51.978;4.498;2022-07-29T04:14:09;1.55;;;1.30;;
69783;SDS011;57054;51.978;4.498;2022-07-29T04:16:35;3.30;;;1.88;;
69783;SDS011;57054;51.978;4.498;2022-07-29T04:19:00;1.40;;;1.30;;
69783;SDS011;57054;51.978;4.498;2022-07-29T04:21:26;1.40;;;1.20;;
69783;SDS011;57054;51.978;4.498;2022-07-29T04:23:51;3.17;;;1.80;;
69783;SDS011;57054;51.978;4.498;2022-07-29T04:26:17;3.33;;;1.52;;
69783;SDS011;57054;51.978;4.498;2022-07-29T04:28:43;2.80;;;1.50;;
69783;SDS011;57054;51.978;4.498;2022-07-29T04:31:10;2.88;;;1.60;;
69783;SDS011;57054;51.978;4.498;2022-07-29T04:33:36;1.52;;;1.42;;
69783;SDS011;57054;51.978;4.498;2022-07-29T04:36:01;1.80;;;1.70;;
69783;SDS011;57054;51.978;4.498;2022-07-29T04:38:27;3.33;;;1.63;;
69783;SDS011;57054;51.978;4.498;2022-07-29T04:40:52;1.92;;;1.65;;
69783;SDS011;57054;51.978;4.498;2022-07-29T04:43:18;3.55;;;1.52;;
69783;SDS011;57054;51.978;4.498;2022-07-29T04:45:43;3.75;;;1.48;;
69783;SDS011;57054;51.978;4.498;2022-07-29T04:48:08;2.42;;;1.60;;
69783;SDS011;57054;51.978;4.498;2022-07-29T04:50:34;2.72;;;1.48;;
69783;SDS011;57054;51.978;4.498;2022-07-29T04:53:02;1.63;;;1.52;;
69783;SDS011;57054;51.978;4.498;2022-07-29T04:55:27;1.58;;;1.48;;
69783;SDS011;57054;51.978;4.498;2022-07-29T04:57:53;1.40;;;1.30;;
69783;SDS011;57054;51.978;4.498;2022-07-29T05:00:18;3.78;;;1.60;;
69783;SDS011;57054;51.978;4.498;2022-07-29T05:02:44;1.45;;;1.35;;
69783;SDS011;57054;51.978;4.498;2022-07-29T05:05:09;2.72;;;1.70;;
69783;SDS011;57054;51.978;4.498;2022-07-29T05:07:34;2.25;;;1.40;;
69783;SDS011;57054;51.978;4.498;2022-07-29T05:10:00;1.27;;;1.10;;
69783;SDS011;57054;51.978;4.498;2022-07-29T05:12:25;1.20;;;1.10;;
69783;SDS011;57054;51.978;4.498;2022-07-29T05:14:51;3.60;;;1.55;;
69783;SDS011;57054;51.978;4.498;2022-07-29T05:17:17;2.50;;;1.40;;
69783;SDS011;57054;51.978;4.498;2022-07-29T05:19:43;4.38;;;1.33;;
69783;SDS011;57054;51.978;4.498;2022-07-29T05:22:08;1.75;;;1.20;;
69783;SDS011;57054;51.978;4.498;2022-07-29T05:24:33;2.22;;;1.35;;
69783;SDS011;57054;51.978;4.498;2022-07-29T05:26:59;2.13;;;1.60;;
69783;SDS011;57054;51.978;4.498;2022-07-29T05:29:24;1.98;;;1.50;;
69783;SDS011;57054;51.978;4.498;2022-07-29T05:31:50;2.28;;;1.65;;
69783;SDS011;57054;51.978;4.498;2022-07-29T05:34:16;2.60;;;1.67;;
69783;SDS011;57054;51.978;4.498;2022-07-29T05:36:42;2.45;;;1.48;;
69783;SDS011;57054;51.978;4.498;2022-07-29T05:39:07;1.65;;;1.55;;
69783;SDS011;57054;51.978;4.498;2022-07-29T05:41:33;1.30;;;1.20;;
69783;SDS011;57054;51.978;4.498;2022-07-29T05:43:58;3.85;;;1.42;;
69783;SDS011;57054;51.978;4.498;2022-07-29T05:46:24;2.05;;;1.65;;
69783;SDS011;57054;51.978;4.498;2022-07-29T05:48:49;3.42;;;1.67;;
69783;SDS011;57054;51.978;4.498;2022-07-29T05:51:14;3.60;;;1.83;;
69783;SDS011;57054;51.978;4.498;2022-07-29T05:53:40;1.90;;;1.55;;
69783;SDS011;57054;51.978;4.498;2022-07-29T05:56:05;1.80;;;1.65;;
69783;SDS011;57054;51.978;4.498;2022-07-29T05:58:32;1.73;;;1.60;;
69783;SDS011;57054;51.978;4.498;2022-07-29T06:00:58;2.45;;;1.70;;
69783;SDS011;57054;51.978;4.498;2022-07-29T06:03:26;5.70;;;2.10;;
69783;SDS011;57054;51.978;4.498;2022-07-29T06:05:51;2.50;;;1.50;;
69783;SDS011;57054;51.978;4.498;2022-07-29T06:08:17;2.60;;;1.63;;
69783;SDS011;57054;51.978;4.498;2022-07-29T06:10:43;2.45;;;1.40;;
69783;SDS011;57054;51.978;4.498;2022-07-29T06:13:09;4.63;;;1.60;;
69783;SDS011;57054;51.978;4.498;2022-07-29T06:15:34;4.35;;;1.95;;
69783;SDS011;57054;51.978;4.498;2022-07-29T06:18:00;2.85;;;1.60;;
69783;SDS011;57054;51.978;4.498;2022-07-29T06:20:25;2.85;;;2.10;;
69783;SDS011;57054;51.978;4.498;2022-07-29T06:22:54;3.95;;;1.70;;
69783;SDS011;57054;51.978;4.498;2022-07-29T06:25:20;5.63;;;1.75;;
69783;SDS011;57054;51.978;4.498;2022-07-29T06:27:45;4.30;;;1.70;;
69783;SDS011;57054;51.978;4.498;2022-07-29T06:30:10;1.85;;;1.50;;
69783;SDS011;57054;51.978;4.498;2022-07-29T06:32:36;1.40;;;1.30;;
69783;SDS011;57054;51.978;4.498;2022-07-29T06:35:02;2.17;;;1.55;;
69783;SDS011;57054;51.978;4.498;2022-07-29T06:37:27;2.70;;;1.50;;
69783;SDS011;57054;51.978;4.498;2022-07-29T06:39:53;3.00;;;1.48;;
69783;SDS011;57054;51.978;4.498;2022-07-29T06:42:41;2.08;;;1.55;;
69783;SDS011;57054;51.978;4.498;2022-07-29T06:45:07;1.70;;;1.48;;
69783;SDS011;57054;51.978;4.498;2022-07-29T06:47:33;6.07;;;1.80;;
69783;SDS011;57054;51.978;4.498;2022-07-29T06:49:59;6.60;;;2.08;;
69783;SDS011;57054;51.978;4.498;2022-07-29T06:52:24;4.70;;;1.60;;
69783;SDS011;57054;51.978;4.498;2022-07-29T06:54:50;2.75;;;1.75;;
69783;SDS011;57054;51.978;4.498;2022-07-29T06:57:16;2.60;;;1.60;;
69783;SDS011;57054;51.978;4.498;2022-07-29T06:59:41;2.78;;;1.58;;
69783;SDS011;57054;51.978;4.498;2022-07-29T07:02:06;3.83;;;1.88;;
69783;SDS011;57054;51.978;4.498;2022-07-29T07:04:32;3.50;;;1.73;;
69783;SDS011;57054;51.978;4.498;2022-07-29T07:06:58;1.63;;;1.40;;
69783;SDS011;57054;51.978;4.498;2022-07-29T07:09:24;2.42;;;1.60;;
69783;SDS011;57054;51.978;4.498;2022-07-29T07:11:50;4.07;;;1.70;;
69783;SDS011;57054;51.978;4.498;2022-07-29T07:14:15;2.22;;;1.40;;
69783;SDS011;57054;51.978;4.498;2022-07-29T07:16:41;4.90;;;1.75;;
69783;SDS011;57054;51.978;4.498;2022-07-29T07:19:06;5.38;;;1.70;;
69783;SDS011;57054;51.978;4.498;2022-07-29T07:21:32;2.40;;;1.42;;
69783;SDS011;57054;51.978;4.498;2022-07-29T07:23:59;2.30;;;1.75;;
69783;SDS011;57054;51.978;4.498;2022-07-29T07:26:25;2.72;;;1.75;;
69783;SDS011;57054;51.978;4.498;2022-07-29T07:28:51;1.70;;;1.42;;
69783;SDS011;57054;51.978;4.498;2022-07-29T07:31:16;3.63;;;1.65;;
69783;SDS011;57054;51.978;4.498;2022-07-29T07:33:42;3.97;;;1.80;;
69783;SDS011;57054;51.978;4.498;2022-07-29T07:36:08;2.03;;;1.67;;
69783;SDS011;57054;51.978;4.498;2022-07-29T07:38:33;2.15;;;1.80;;
69783;SDS011;57054;51.978;4.498;2022-07-29T07:40:59;6.22;;;1.70;;
69783;SDS011;57054;51.978;4.498;2022-07-29T07:43:25;2.13;;;1.83;;
69783;SDS011;57054;51.978;4.498;2022-07-29T07:45:50;5.38;;;1.80;;
69783;SDS011;57054;51.978;4.498;2022-07-29T07:48:15;2.25;;;1.75;;
69783;SDS011;57054;51.978;4.498;2022-07-29T07:50:41;5.88;;;1.70;;
69783;SDS011;57054;51.978;4.498;2022-07-29T07:53:06;3.53;;;2.13;;
69783;SDS011;57054;51.978;4.498;2022-07-29T07:55:31;2.25;;;1.80;;
69783;SDS011;57054;51.978;4.498;2022-07-29T07:57:57;2.75;;;1.88;;
69783;SDS011;57054;51.978;4.498;2022-07-29T08:00:22;2.85;;;1.50;;
69783;SDS011;57054;51.978;4.498;2022-07-29T08:02:48;4.18;;;1.80;;
69783;SDS011;57054;51.978;4.498;2022-07-29T08:05:13;2.88;;;2.00;;
69783;SDS011;57054;51.978;4.498;2022-07-29T08:07:42;2.40;;;1.60;;
69783;SDS011;57054;51.978;4.498;2022-07-29T08:10:09;2.43;;;1.70;;
69783;SDS011;57054;51.978;4.498;2022-07-29T08:12:35;4.10;;;1.67;;
69783;SDS011;57054;51.978;4.498;2022-07-29T08:15:00;2.60;;;1.50;;
69783;SDS011;57054;51.978;4.498;2022-07-29T08:17:26;3.30;;;1.88;;
69783;SDS011;57054;51.978;4.498;2022-07-29T08:19:51;3.05;;;1.92;;
69783;SDS011;57054;51.978;4.498;2022-07-29T08:22:17;7.38;;;1.92;;
69783;SDS011;57054;51.978;4.498;2022-07-29T08:24:42;13.45;;;2.03;;
69783;SDS011;57054;51.978;4.498;2022-07-29T08:27:08;2.63;;;1.83;;
69783;SDS011;57054;51.978;4.498;2022-07-29T08:29:35;2.55;;;1.70;;
69783;SDS011;57054;51.978;4.498;2022-07-29T08:32:00;3.53;;;1.77;;
69783;SDS011;57054;51.978;4.498;2022-07-29T08:34:26;2.97;;;2.50;;
69783;SDS011;57054;51.978;4.498;2022-07-29T08:36:55;1.80;;;1.70;;
69783;SDS011;57054;51.978;4.498;2022-07-29T08:39:21;4.78;;;2.38;;
69783;SDS011;57054;51.978;4.498;2022-07-29T08:41:47;6.15;;;2.20;;
69783;SDS011;57054;51.978;4.498;2022-07-29T08:44:13;3.30;;;1.77;;
69783;SDS011;57054;51.978;4.498;2022-07-29T08:46:41;4.25;;;2.10;;
69783;SDS011;57054;51.978;4.498;2022-07-29T08:49:07;2.42;;;1.92;;
69783;SDS011;57054;51.978;4.498;2022-07-29T08:51:32;2.53;;;1.80;;
69783;SDS011;57054;51.978;4.498;2022-07-29T08:54:00;5.35;;;1.70;;
69783;SDS011;57054;51.978;4.498;2022-07-29T08:56:26;3.17;;;1.80;;
69783;SDS011;57054;51.978;4.498;2022-07-29T08:58:52;5.53;;;1.85;;
69783;SDS011;57054;51.978;4.498;2022-07-29T09:01:22;4.28;;;2.10;;
69783;SDS011;57054;51.978;4.498;2022-07-29T09:03:48;4.85;;;1.90;;
69783;SDS011;57054;51.978;4.498;2022-07-29T09:06:15;4.15;;;1.80;;
69783;SDS011;57054;51.978;4.498;2022-07-29T09:08:42;2.58;;;1.80;;
69783;SDS011;57054;51.978;4.498;2022-07-29T09:11:09;1.70;;;1.60;;
69783;SDS011;57054;51.978;4.498;2022-07-29T09:13:36;4.32;;;1.98;;
69783;SDS011;57054;51.978;4.498;2022-07-29T09:16:01;3.42;;;2.10;;
69783;SDS011;57054;51.978;4.498;2022-07-29T09:18:34;3.08;;;1.50;;
69783;SDS011;57054;51.978;4.498;2022-07-29T09:21:04;2.30;;;2.10;;
69783;SDS011;57054;51.978;4.498;2022-07-29T09:24:12;2.15;;;1.65;;
69783;SDS011;57054;51.978;4.498;2022-07-29T09:26:39;6.63;;;2.10;;
69783;SDS011;57054;51.978;4.498;2022-07-29T09:29:10;3.60;;;1.90;;
69783;SDS011;57054;51.978;4.498;2022-07-29T09:31:46;3.70;;;1.85;;
69783;SDS011;57054;51.978;4.498;2022-07-29T09:34:14;4.43;;;2.17;;
69783;SDS011;57054;51.978;4.498;2022-07-29T09:36:42;4.83;;;2.10;;
69783;SDS011;57054;51.978;4.498;2022-07-29T09:39:09;2.47;;;1.85;;
69783;SDS011;57054;51.978;4.498;2022-07-29T09:41:49;3.78;;;1.80;;
69783;SDS011;57054;51.978;4.498;2022-07-29T09:44:18;3.35;;;1.73;;
69783;SDS011;57054;51.978;4.498;2022-07-29T09:49:32;5.05;;;1.95;;
69783;SDS011;57054;51.978;4.498;2022-07-29T09:52:08;6.82;;;2.05;;
69783;SDS011;57054;51.978;4.498;2022-07-29T09:54:34;4.07;;;2.22;;
69783;SDS011;57054;51.978;4.498;2022-07-29T09:57:04;3.05;;;2.60;;
69783;SDS011;57054;51.978;4.498;2022-07-29T09:59:32;4.43;;;2.20;;
69783;SDS011;57054;51.978;4.498;2022-07-29T10:01:58;4.10;;;1.65;;
69783;SDS011;57054;51.978;4.498;2022-07-29T10:04:24;8.07;;;2.60;;
69783;SDS011;57054;51.978;4.498;2022-07-29T10:07:02;4.25;;;2.22;;
69783;SDS011;57054;51.978;4.498;2022-07-29T10:09:29;3.85;;;2.10;;
69783;SDS011;57054;51.978;4.498;2022-07-29T10:14:35;4.90;;;2.38;;
69783;SDS011;57054;51.978;4.498;2022-07-29T10:17:02;3.22;;;2.53;;
69783;SDS011;57054;51.978;4.498;2022-07-29T10:19:29;3.13;;;2.35;;
69783;SDS011;57054;51.978;4.498;2022-07-29T10:21:59;4.72;;;2.65;;
69783;SDS011;57054;51.978;4.498;2022-07-29T10:24:27;5.65;;;2.55;;
69783;SDS011;57054;51.978;4.498;2022-07-29T10:26:55;5.70;;;2.38;;
69783;SDS011;57054;51.978;4.498;2022-07-29T10:29:21;2.97;;;2.30;;
69783;SDS011;57054;51.978;4.498;2022-07-29T10:32:00;4.78;;;2.25;;
69783;SDS011;57054;51.978;4.498;2022-07-29T10:34:55;3.17;;;2.00;;
69783;SDS011;57054;51.978;4.498;2022-07-29T10:37:37;2.75;;;1.92;;
69783;SDS011;57054;51.978;4.498;2022-07-29T10:40:09;4.32;;;1.55;;
69783;SDS011;57054;51.978;4.498;2022-07-29T10:43:02;2.58;;;1.98;;
69783;SDS011;57054;51.978;4.498;2022-07-29T10:45:54;3.08;;;1.60;;
69783;SDS011;57054;51.978;4.498;2022-07-29T10:48:22;4.50;;;2.03;;
69783;SDS011;57054;51.978;4.498;2022-07-29T10:51:01;3.40;;;1.85;;
69783;SDS011;57054;51.978;4.498;2022-07-29T10:56:28;5.63;;;2.00;;
69783;SDS011;57054;51.978;4.498;2022-07-29T11:01:45;3.45;;;1.73;;
69783;SDS011;57054;51.978;4.498;2022-07-29T11:04:11;7.80;;;1.73;;
69783;SDS011;57054;51.978;4.498;2022-07-29T11:09:30;5.88;;;1.98;;
69783;SDS011;57054;51.978;4.498;2022-07-29T11:11:56;2.38;;;1.55;;
69783;SDS011;57054;51.978;4.498;2022-07-29T11:17:22;1.63;;;1.40;;
69783;SDS011;57054;51.978;4.498;2022-07-29T11:19:47;2.95;;;1.70;;
69783;SDS011;57054;51.978;4.498;2022-07-29T11:22:30;3.75;;;1.60;;
69783;SDS011;57054;51.978;4.498;2022-07-29T11:25:16;4.63;;;1.70;;
69783;SDS011;57054;51.978;4.498;2022-07-29T11:27:45;3.58;;;2.05;;
69783;SDS011;57054;51.978;4.498;2022-07-29T11:30:10;3.15;;;1.50;;
69783;SDS011;57054;51.978;4.498;2022-07-29T11:32:40;4.00;;;2.22;;
69783;SDS011;57054;51.978;4.498;2022-07-29T11:37:40;5.88;;;1.85;;
69783;SDS011;57054;51.978;4.498;2022-07-29T11:47:34;4.32;;;1.50;;
69783;SDS011;57054;51.978;4.498;2022-07-29T11:50:02;2.58;;;1.30;;
69783;SDS011;57054;51.978;4.498;2022-07-29T11:55:02;3.33;;;1.48;;
69783;SDS011;57054;51.978;4.498;2022-07-29T11:57:29;3.70;;;1.13;;
69783;SDS011;57054;51.978;4.498;2022-07-29T11:59:55;3.03;;;1.40;;
69783;SDS011;57054;51.978;4.498;2022-07-29T12:02:22;2.10;;;1.38;;
69783;SDS011;57054;51.978;4.498;2022-07-29T12:04:52;3.30;;;2.00;;
69783;SDS011;57054;51.978;4.498;2022-07-29T12:07:32;1.98;;;1.02;;
69783;SDS011;57054;51.978;4.498;2022-07-29T12:09:59;1.65;;;1.40;;
69783;SDS011;57054;51.978;4.498;2022-07-29T12:12:25;2.42;;;1.38;;
69783;SDS011;57054;51.978;4.498;2022-07-29T12:14:51;1.52;;;1.30;;
69783;SDS011;57054;51.978;4.498;2022-07-29T12:19:52;4.72;;;1.77;;
69783;SDS011;57054;51.978;4.498;2022-07-29T12:22:27;3.47;;;1.38;;
69783;SDS011;57054;51.978;4.498;2022-07-29T12:25:02;2.55;;;1.20;;
69783;SDS011;57054;51.978;4.498;2022-07-29T12:27:29;1.92;;;1.30;;
69783;SDS011;57054;51.978;4.498;2022-07-29T12:29:55;2.88;;;1.33;;
69783;SDS011;57054;51.978;4.498;2022-07-29T12:32:37;6.40;;;1.35;;
69783;SDS011;57054;51.978;4.498;2022-07-29T12:35:05;3.30;;;1.73;;
69783;SDS011;57054;51.978;4.498;2022-07-29T12:37:33;4.13;;;1.70;;
69783;SDS011;57054;51.978;4.498;2022-07-29T12:40:00;2.78;;;1.50;;
69783;SDS011;57054;51.978;4.498;2022-07-29T12:42:26;2.00;;;1.42;;
69783;SDS011;57054;51.978;4.498;2022-07-29T12:44:52;2.00;;;1.40;;
69783;SDS011;57054;51.978;4.498;2022-07-29T12:47:17;5.63;;;1.65;;
69783;SDS011;57054;51.978;4.498;2022-07-29T12:49:44;3.50;;;1.55;;
69783;SDS011;57054;51.978;4.498;2022-07-29T12:54:55;3.63;;;1.52;;
69783;SDS011;57054;51.978;4.498;2022-07-29T12:57:21;2.15;;;1.48;;
69783;SDS011;57054;51.978;4.498;2022-07-29T13:00:06;3.97;;;1.52;;
69783;SDS011;57054;51.978;4.498;2022-07-29T13:02:34;7.72;;;1.42;;
69783;SDS011;57054;51.978;4.498;2022-07-29T13:05:01;2.05;;;1.42;;
69783;SDS011;57054;51.978;4.498;2022-07-29T13:07:28;3.78;;;1.52;;
69783;SDS011;57054;51.978;4.498;2022-07-29T13:09:58;3.33;;;1.58;;
69783;SDS011;57054;51.978;4.498;2022-07-29T13:12:35;2.90;;;1.40;;
69783;SDS011;57054;51.978;4.498;2022-07-29T13:15:11;2.33;;;1.80;;
69783;SDS011;57054;51.978;4.498;2022-07-29T13:20:08;6.63;;;2.05;;
69783;SDS011;57054;51.978;4.498;2022-07-29T13:22:38;2.30;;;1.45;;
69783;SDS011;57054;51.978;4.498;2022-07-29T13:25:04;2.83;;;1.30;;
69783;SDS011;57054;51.978;4.498;2022-07-29T13:27:34;1.30;;;1.20;;
69783;SDS011;57054;51.978;4.498;2022-07-29T13:30:02;4.70;;;1.60;;
69783;SDS011;57054;51.978;4.498;2022-07-29T13:32:29;2.05;;;1.50;;
69783;SDS011;57054;51.978;4.498;2022-07-29T13:34:56;6.45;;;1.60;;
69783;SDS011;57054;51.978;4.498;2022-07-29T13:37:22;1.70;;;1.40;;
69783;SDS011;57054;51.978;4.498;2022-07-29T13:39:48;5.72;;;1.73;;
69783;SDS011;57054;51.978;4.498;2022-07-29T13:42:17;2.17;;;1.40;;
69783;SDS011;57054;51.978;4.498;2022-07-29T13:44:42;2.33;;;1.30;;
69783;SDS011;57054;51.978;4.498;2022-07-29T13:47:08;2.92;;;1.50;;
69783;SDS011;57054;51.978;4.498;2022-07-29T13:49:34;4.68;;;1.60;;
69783;SDS011;57054;51.978;4.498;2022-07-29T13:51:59;2.30;;;1.45;;
69783;SDS011;57054;51.978;4.498;2022-07-29T13:54:25;4.32;;;1.42;;
69783;SDS011;57054;51.978;4.498;2022-07-29T13:56:50;3.83;;;1.63;;
69783;SDS011;57054;51.978;4.498;2022-07-29T13:59:16;3.22;;;1.80;;
69783;SDS011;57054;51.978;4.498;2022-07-29T14:01:42;6.65;;;2.05;;
69783;SDS011;57054;51.978;4.498;2022-07-29T14:04:08;7.03;;;1.40;;
69783;SDS011;57054;51.978;4.498;2022-07-29T14:06:34;2.33;;;1.45;;
69783;SDS011;57054;51.978;4.498;2022-07-29T14:08:59;2.63;;;1.25;;
69783;SDS011;57054;51.978;4.498;2022-07-29T14:11:25;4.43;;;1.50;;
69783;SDS011;57054;51.978;4.498;2022-07-29T14:13:50;8.10;;;1.25;;
69783;SDS011;57054;51.978;4.498;2022-07-29T14:16:16;3.92;;;1.75;;
69783;SDS011;57054;51.978;4.498;2022-07-29T14:18:41;2.70;;;1.88;;
69783;SDS011;57054;51.978;4.498;2022-07-29T14:21:07;5.15;;;1.30;;
69783;SDS011;57054;51.978;4.498;2022-07-29T14:23:33;3.40;;;1.48;;
69783;SDS011;57054;51.978;4.498;2022-07-29T14:25:58;1.85;;;1.58;;
69783;SDS011;57054;51.978;4.498;2022-07-29T14:28:24;2.63;;;1.40;;
69783;SDS011;57054;51.978;4.498;2022-07-29T14:30:49;2.70;;;1.42;;
69783;SDS011;57054;51.978;4.498;2022-07-29T14:33:15;1.98;;;1.33;;
69783;SDS011;57054;51.978;4.498;2022-07-29T14:35:40;3.63;;;1.63;;
69783;SDS011;57054;51.978;4.498;2022-07-29T14:38:05;5.78;;;1.58;;
69783;SDS011;57054;51.978;4.498;2022-07-29T14:40:31;7.47;;;2.08;;
69783;SDS011;57054;51.978;4.498;2022-07-29T14:42:56;1.92;;;1.50;;
69783;SDS011;57054;51.978;4.498;2022-07-29T14:45:22;1.85;;;1.60;;
69783;SDS011;57054;51.978;4.498;2022-07-29T14:47:47;2.50;;;1.55;;
69783;SDS011;57054;51.978;4.498;2022-07-29T14:50:15;3.90;;;1.40;;
69783;SDS011;57054;51.978;4.498;2022-07-29T14:52:40;2.47;;;1.63;;
69783;SDS011;57054;51.978;4.498;2022-07-29T14:55:06;2.17;;;1.42;;
69783;SDS011;57054;51.978;4.498;2022-07-29T14:57:31;4.35;;;1.70;;
69783;SDS011;57054;51.978;4.498;2022-07-29T14:59:57;6.45;;;2.28;;
69783;SDS011;57054;51.978;4.498;2022-07-29T15:02:22;1.52;;;1.35;;
69783;SDS011;57054;51.978;4.498;2022-07-29T15:04:48;3.08;;;1.55;;
69783;SDS011;57054;51.978;4.498;2022-07-29T15:07:13;2.92;;;1.70;;
69783;SDS011;57054;51.978;4.498;2022-07-29T15:09:40;2.25;;;1.30;;
69783;SDS011;57054;51.978;4.498;2022-07-29T15:12:06;1.50;;;1.10;;
69783;SDS011;57054;51.978;4.498;2022-07-29T15:14:32;2.80;;;1.55;;
69783;SDS011;57054;51.978;4.498;2022-07-29T15:16:58;2.40;;;1.40;;
69783;SDS011;57054;51.978;4.498;2022-07-29T15:19:23;2.28;;;1.30;;
69783;SDS011;57054;51.978;4.498;2022-07-29T15:21:49;4.05;;;1.10;;
69783;SDS011;57054;51.978;4.498;2022-07-29T15:24:15;2.30;;;1.13;;
69783;SDS011;57054;51.978;4.498;2022-07-29T15:26:41;4.72;;;1.40;;
69783;SDS011;57054;51.978;4.498;2022-07-29T15:29:07;4.95;;;1.60;;
69783;SDS011;57054;51.978;4.498;2022-07-29T15:31:32;3.55;;;1.50;;
69783;SDS011;57054;51.978;4.498;2022-07-29T15:33:58;2.22;;;1.40;;
69783;SDS011;57054;51.978;4.498;2022-07-29T15:36:23;4.47;;;1.70;;
69783;SDS011;57054;51.978;4.498;2022-07-29T15:38:51;3.47;;;1.30;;
69783;SDS011;57054;51.978;4.498;2022-07-29T15:41:18;3.72;;;1.08;;
69783;SDS011;57054;51.978;4.498;2022-07-29T15:43:43;1.45;;;1.35;;
69783;SDS011;57054;51.978;4.498;2022-07-29T15:46:12;4.13;;;1.13;;